Time;durP1;ratioP1;P1;durP2;ratioP2;P2;SDS_P1;SDS_P2;PMS_P1;PMS_P2;Temp;Humidity;BMP_temperature;BMP_pressure;BME280_temperature;BME280_humidity;BME280_pressure;Samples;Min_cycle;Max_cycle;Signal;HPM_P1;HPM_P2
2022/02/16 00:02:08;;;;;;;32.98;21.57;;;;;;;5.04;75.12;100279.29;1667344;84;20950;-79
2022/02/16 00:04:36;;;;;;;38.05;21.60;;;;;;;5.01;75.17;100279.28;1669867;84;20965;-80
2022/02/16 00:07:03;;;;;;;35.40;23.27;;;;;;;4.98;75.23;100275.02;1671762;84;20949;-79
2022/02/16 00:09:29;;;;;;;;;;;;;;;4.97;75.25;100270.31;1692697;84;20929;-80
2022/02/16 00:11:55;;;;;;;36.88;22.60;;;;;;;4.93;75.45;100275.00;1690605;84;20203;-79
2022/02/16 00:14:21;;;;;;;34.23;21.35;;;;;;;4.92;75.35;100269.45;1675073;84;20958;-79
2022/02/16 00:16:47;;;;;;;36.30;22.52;;;;;;;4.90;75.27;100270.30;1682431;84;21037;-79
2022/02/16 00:19:17;;;;;;;37.03;23.07;;;;;;;4.87;75.24;100272.43;1688307;84;21026;-80
2022/02/16 00:21:43;;;;;;;39.40;23.13;;;;;;;4.85;75.34;100273.28;1645708;84;20933;-79
2022/02/16 00:24:09;;;;;;;36.98;22.52;;;;;;;4.73;75.38;100250.20;1651417;86;21063;-79
2022/02/16 00:26:36;;;;;;;38.23;21.17;;;;;;;4.82;75.38;100266.88;1631835;86;21143;-79
2022/02/16 00:29:02;;;;;;;36.90;22.17;;;;;;;4.81;75.43;100267.72;1651237;86;21831;-79
2022/02/16 00:31:28;;;;;;;32.03;21.37;;;;;;;4.78;75.39;100264.73;1649736;86;21064;-80
2022/02/16 00:33:57;;;;;;;33.05;20.55;;;;;;;4.75;75.44;100268.56;1624215;86;21572;-80
2022/02/16 00:36:23;;;;;;;39.60;22.62;;;;;;;4.73;75.47;100270.70;1626304;86;21088;-79
2022/02/16 00:38:49;;;;;;;32.43;21.27;;;;;;;4.70;75.51;100265.56;1649328;86;21164;-79
2022/02/16 00:41:15;;;;;;;33.00;20.70;;;;;;;4.68;75.51;100265.56;1651593;86;21781;-80
2022/02/16 00:43:42;;;;;;;34.45;20.75;;;;;;;4.67;75.55;100261.32;1642518;86;21116;-81
2022/02/16 00:46:11;;;;;;;32.23;20.08;;;;;;;4.64;75.55;100258.33;1652942;85;20930;-80
2022/02/16 00:48:37;;;;;;;32.33;19.90;;;;;;;4.63;75.58;100255.34;1634187;86;20941;-81
2022/02/16 00:51:03;;;;;;;37.47;21.10;;;;;;;4.61;75.59;100249.78;1633602;86;20945;-80
2022/02/16 00:53:29;;;;;;;39.00;21.17;;;;;;;4.56;75.62;100245.93;1626795;88;20925;-80
2022/02/16 00:55:59;;;;;;;34.00;22.07;;;;;;;4.54;75.59;100242.52;1631878;86;20977;-80
2022/02/16 00:58:25;;;;;;;35.80;22.02;;;;;;;4.51;75.65;100240.37;1653378;86;20918;-80
2022/02/16 01:00:51;;;;;;;37.93;21.00;;;;;;;4.50;75.68;100238.66;1641776;85;20949;-80
2022/02/16 01:03:18;;;;;;;38.20;21.48;;;;;;;4.48;75.71;100235.23;1653620;86;20929;-80
2022/02/16 01:05:45;;;;;;;36.33;22.50;;;;;;;4.45;75.71;100237.80;1641786;86;20921;-80
2022/02/16 01:08:12;;;;;;;32.63;21.35;;;;;;;4.41;75.71;100235.65;1626536;86;21102;-80
2022/02/16 01:10:41;;;;;;;36.45;22.10;;;;;;;4.39;75.76;100227.11;1626414;87;20925;-80
2022/02/16 01:13:15;;;;;;;35.10;21.65;;;;;;;4.39;75.86;100223.70;1630050;86;20946;-80
2022/02/16 01:15:41;;;;;;;34.43;22.73;;;;;;;4.36;75.87;100216.00;1631080;86;21559;-80
2022/02/16 01:18:07;;;;;;;35.23;22.55;;;;;;;4.34;75.84;100216.00;1653508;86;20969;-80
2022/02/16 01:20:33;;;;;;;37.87;23.07;;;;;;;4.30;75.87;100201.48;1653264;86;20918;-79
2022/02/16 01:22:59;;;;;;;35.75;22.45;;;;;;;4.30;75.87;100201.48;1640631;86;21337;-79
2022/02/16 01:25:25;;;;;;;35.80;22.00;;;;;;;4.27;75.94;100197.21;1652507;86;20915;-80
2022/02/16 01:27:52;;;;;;;34.60;21.95;;;;;;;4.25;75.94;100195.50;1638299;86;20917;-79
2022/02/16 01:30:18;;;;;;;36.77;23.18;;;;;;;4.25;75.94;100192.94;1626496;87;20957;-79
2022/02/16 01:32:44;;;;;;;36.58;22.87;;;;;;;4.23;76.02;100192.94;1627937;86;20957;-80
2022/02/16 01:35:18;;;;;;;34.50;22.00;;;;;;;4.23;76.03;100192.08;1635918;86;21076;-80
2022/02/16 01:37:44;;;;;;;36.80;21.73;;;;;;;4.22;76.08;100191.66;1623452;88;21024;-80
2022/02/16 01:40:10;;;;;;;40.80;23.50;;;;;;;4.22;76.05;100188.67;1624406;86;21365;-79
2022/02/16 01:42:37;;;;;;;37.53;22.73;;;;;;;4.21;76.10;100178.42;1623748;86;21066;-80
2022/02/16 01:45:04;;;;;;;40.10;23.35;;;;;;;4.21;76.10;100171.61;1624156;86;21064;-80
2022/02/16 01:47:30;;;;;;;36.90;22.50;;;;;;;4.22;76.17;100171.18;1650758;84;20970;-80
2022/02/16 01:49:57;;;;;;;38.13;22.15;;;;;;;4.21;76.18;100166.48;1652694;85;20965;-79
2022/02/16 01:52:23;;;;;;;35.90;22.73;;;;;;;4.22;76.13;100163.50;1632718;85;20890;-79
2022/02/16 01:54:49;;;;;;;33.45;21.62;;;;;;;4.23;76.23;100161.38;1626343;86;20933;-80
2022/02/16 01:57:15;;;;;;;31.45;20.80;;;;;;;4.22;76.20;100154.55;1626202;88;20917;-79
2022/02/16 01:59:41;;;;;;;32.83;21.15;;;;;;;4.22;76.26;100154.12;1626371;86;20925;-79
2022/02/16 02:02:07;;;;;;;30.90;21.02;;;;;;;4.23;76.22;100148.16;1638005;86;20890;-79
2022/02/16 02:04:33;;;;;;;30.80;19.77;;;;;;;4.23;76.24;100146.02;1626270;88;21536;-79
2022/02/16 02:06:59;;;;;;;36.68;20.97;;;;;;;4.22;76.25;100135.36;1626200;87;20977;-79
2022/02/16 02:09:26;;;;;;;30.70;19.77;;;;;;;4.21;76.22;100129.38;1630497;86;21001;-79
2022/02/16 02:11:51;;;;;;;28.47;19.25;;;;;;;4.20;76.22;100125.55;1627913;86;20933;-79
2022/02/16 02:14:17;;;;;;;33.90;18.53;;;;;;;4.20;76.29;100112.75;1626317;87;20885;-80
2022/02/16 02:16:44;;;;;;;29.97;18.37;;;;;;;4.20;76.28;100116.16;1642365;86;20937;-79
2022/02/16 02:19:11;;;;;;;31.17;19.12;;;;;;;4.20;76.27;100111.47;1644642;85;20953;-79
2022/02/16 02:21:38;;;;;;;29.40;19.35;;;;;;;4.18;76.28;100117.01;1662664;83;20870;-79
2022/02/16 02:24:05;;;;;;;27.93;18.95;;;;;;;4.17;76.31;100108.48;1698019;84;20953;-79
2022/02/16 02:26:31;;;;;;;23.67;16.77;;;;;;;4.16;76.32;100106.77;1686895;83;20957;-79
2022/02/16 02:28:58;;;;;;;24.07;16.40;;;;;;;4.17;76.37;100098.24;1697766;83;20874;-79
2022/02/16 02:31:30;;;;;;;26.50;16.87;;;;;;;4.16;76.37;100092.70;1682331;84;20917;-79
2022/02/16 02:33:57;;;;;;;29.30;16.37;;;;;;;4.16;76.42;100090.59;1669498;84;20949;-79
2022/02/16 02:36:25;;;;;;;27.52;17.07;;;;;;;4.16;76.44;100086.30;1678717;84;20950;-79
2022/02/16 02:38:51;;;;;;;25.92;15.75;;;;;;;4.16;76.41;100090.59;1686081;83;21438;-79
2022/02/16 02:41:17;;;;;;;22.82;15.95;;;;;;;4.15;76.41;100074.39;1696075;84;20918;-79
2022/02/16 02:43:47;;;;;;;23.15;14.25;;;;;;;4.14;76.41;100077.80;1692919;83;20922;-80
2022/02/16 02:46:14;;;;;;;22.20;14.45;;;;;;;4.13;76.41;100070.13;1686738;84;20917;-80
2022/02/16 02:48:40;;;;;;;19.30;13.72;;;;;;;4.14;76.44;100069.27;1697676;83;21031;-80
2022/02/16 02:51:07;;;;;;;21.00;13.25;;;;;;;4.14;76.46;100069.27;1692949;84;21003;-80
2022/02/16 02:53:34;;;;;;;22.17;13.48;;;;;;;4.13;76.45;100062.45;1669796;84;20874;-80
2022/02/16 02:56:02;;;;;;;19.37;12.88;;;;;;;4.13;76.48;100064.58;1669749;85;20969;-80
2022/02/16 02:58:28;;;;;;;19.20;13.00;;;;;;;4.14;76.44;100054.77;1672297;84;20871;-80
2022/02/16 03:00:55;;;;;;;19.87;12.37;;;;;;;4.12;76.47;100047.95;1669887;84;20946;-80
2022/02/16 03:03:21;;;;;;;15.18;12.07;;;;;;;4.15;76.49;100045.39;1669997;85;20965;-79
2022/02/16 03:05:49;;;;;;;20.08;12.95;;;;;;;4.14;76.48;100031.75;1669763;85;20913;-80
2022/02/16 03:08:15;;;;;;;13.67;11.13;;;;;;;4.15;76.49;100023.64;1670531;84;21036;-80
2022/02/16 03:10:41;;;;;;;17.07;11.20;;;;;;;4.15;76.49;100025.78;1670055;84;20866;-80
2022/02/16 03:13:19;;;;;;;14.53;11.05;;;;;;;4.16;76.52;100020.23;1690555;84;21003;-81
2022/02/16 03:15:36;;;;;;;15.18;10.88;;;;;;;4.19;76.51;100012.52;1696058;83;20957;-80
2022/02/16 03:18:02;;;;;;;13.77;10.17;;;;;;;4.20;76.49;100016.37;1651357;86;21010;-80
2022/02/16 03:20:28;;;;;;;15.47;10.83;;;;;;;4.21;76.52;100006.98;1639601;86;20911;-80
2022/02/16 03:22:54;;;;;;;18.97;10.63;;;;;;;4.21;76.53;100001.87;1633708;87;20952;-80
2022/02/16 03:25:20;;;;;;;10.70;9.33;;;;;;;4.24;76.51;100006.98;1631792;86;20868;-80
2022/02/16 03:27:46;;;;;;;14.23;9.27;;;;;;;4.25;76.50;99988.22;1629781;86;20939;-80
2022/02/16 03:30:13;;;;;;;13.83;8.97;;;;;;;4.27;76.49;99978.83;1631491;86;21118;-79
2022/02/16 03:32:40;;;;;;;10.58;7.65;;;;;;;4.29;76.50;99977.13;1651081;85;21316;-80
2022/02/16 03:35:07;;;;;;;10.48;8.30;;;;;;;4.30;76.50;99974.56;1654504;86;21429;-80
2022/02/16 03:37:33;;;;;;;12.93;8.18;;;;;;;4.33;76.52;99979.69;1642540;86;21074;-80
2022/02/16 03:40:03;;;;;;;12.25;8.23;;;;;;;4.35;76.51;99974.56;1636171;86;21123;-80
2022/02/16 03:42:29;;;;;;;11.63;8.43;;;;;;;4.38;76.51;99982.66;1627392;88;21098;-79
2022/02/16 03:44:55;;;;;;;10.23;7.57;;;;;;;4.40;76.48;99983.09;1641912;86;21109;-79
2022/02/16 03:47:21;;;;;;;10.30;7.93;;;;;;;4.41;76.50;99980.95;1638942;86;21160;-80
2022/02/16 03:49:47;;;;;;;9.57;7.27;;;;;;;4.44;76.49;99970.72;1627390;86;20947;-80
2022/02/16 03:52:13;;;;;;;9.37;6.90;;;;;;;4.45;76.51;99971.56;1653796;86;20908;-80
2022/02/16 03:54:39;;;;;;;12.13;7.20;;;;;;;4.49;76.52;99963.87;1651634;86;20939;-80
2022/02/16 03:57:05;;;;;;;10.87;7.63;;;;;;;4.52;76.54;99962.59;1630642;86;21391;-80
2022/02/16 03:59:31;;;;;;;10.90;7.97;;;;;;;4.55;76.52;99966.43;1633673;86;22009;-80
2022/02/16 04:02:01;;;;;;;12.63;7.50;;;;;;;4.58;76.54;99967.70;1657061;86;20960;-80
2022/02/16 04:04:25;;;;;;;10.48;7.78;;;;;;;4.61;76.54;99963.00;1656795;86;20995;-80
2022/02/16 04:06:51;;;;;;;10.27;7.40;;;;;;;4.63;76.57;99962.14;1657035;86;20904;-80
2022/02/16 04:09:17;;;;;;;11.30;8.10;;;;;;;4.67;76.54;99958.30;1637218;86;20904;-80
2022/02/16 04:11:43;;;;;;;10.53;8.90;;;;;;;4.69;76.57;99959.97;1630425;88;20888;-80
2022/02/16 04:14:08;;;;;;;11.27;7.30;;;;;;;4.70;76.56;99950.14;1633432;86;20927;-80
2022/02/16 04:16:35;;;;;;;12.47;8.33;;;;;;;4.71;76.56;99947.16;1644688;86;20959;-80
2022/02/16 04:19:01;;;;;;;10.23;7.47;;;;;;;4.72;76.59;99947.58;1635275;86;20967;-80
2022/02/16 04:21:27;;;;;;;12.18;7.83;;;;;;;4.74;76.60;99943.31;1630188;87;20959;-80
2022/02/16 04:23:53;;;;;;;9.93;8.00;;;;;;;4.75;76.59;99934.77;1629933;88;20967;-80
2022/02/16 04:26:22;;;;;;;9.53;7.80;;;;;;;4.76;76.61;99938.60;1645219;86;20928;-80
2022/02/16 04:28:49;;;;;;;9.53;7.87;;;;;;;4.76;76.58;99938.60;1649775;86;20928;-80
2022/02/16 04:31:16;;;;;;;10.48;8.15;;;;;;;4.77;76.62;99932.63;1656585;86;20955;-80
2022/02/16 04:33:42;;;;;;;9.33;8.20;;;;;;;4.78;76.61;99931.77;1656915;85;20926;-80
2022/02/16 04:36:08;;;;;;;12.15;8.10;;;;;;;4.79;76.61;99931.34;1656991;86;20952;-80
2022/02/16 04:38:34;;;;;;;13.67;8.47;;;;;;;4.80;76.60;99938.17;1649045;86;20912;-80
2022/02/16 04:41:02;;;;;;;9.08;7.42;;;;;;;4.79;76.59;99932.19;1630155;86;21278;-80
2022/02/16 04:43:30;;;;;;;10.05;7.28;;;;;;;4.80;76.60;99922.80;1630152;86;20948;-81
2022/02/16 04:45:56;;;;;;;10.45;7.85;;;;;;;4.78;76.58;99918.11;1619133;86;21531;-81
2022/02/16 04:48:23;;;;;;;10.90;6.87;;;;;;;4.77;76.60;99918.97;1645707;86;20935;-81
2022/02/16 04:50:49;;;;;;;8.47;6.93;;;;;;;4.80;76.61;99930.48;1657033;86;20888;-80
2022/02/16 04:53:15;;;;;;;10.37;6.73;;;;;;;4.78;76.59;99920.24;1637732;86;20920;-80
2022/02/16 04:55:41;;;;;;;8.93;7.30;;;;;;;4.81;76.59;99916.82;1630135;86;20919;-80
2022/02/16 04:58:07;;;;;;;7.97;6.40;;;;;;;4.80;76.61;99908.71;1638150;86;20892;-80
2022/02/16 05:00:34;;;;;;;8.47;6.70;;;;;;;4.80;76.61;99901.03;1650796;86;20915;-79
2022/02/16 05:03:00;;;;;;;8.00;6.75;;;;;;;4.81;76.62;99901.45;1636110;86;21656;-79
2022/02/16 05:05:26;;;;;;;9.43;6.90;;;;;;;4.82;76.60;99896.33;1654511;86;20877;-79
2022/02/16 05:07:52;;;;;;;7.65;6.50;;;;;;;4.84;76.61;99902.29;1636200;86;20983;-79
2022/02/16 05:10:18;;;;;;;11.75;6.67;;;;;;;4.85;76.61;99891.62;1630112;87;20980;-79
2022/02/16 05:12:44;;;;;;;9.15;7.35;;;;;;;4.85;76.61;99895.03;1640096;86;20964;-79
2022/02/16 05:15:10;;;;;;;8.65;6.33;;;;;;;4.85;76.63;99888.63;1630470;88;20908;-80
2022/02/16 05:17:36;;;;;;;9.63;6.37;;;;;;;4.85;76.64;99898.02;1656110;86;20927;-80
2022/02/16 05:20:03;;;;;;;10.10;6.78;;;;;;;4.86;76.63;99902.28;1639259;86;20972;-80
2022/02/16 05:22:29;;;;;;;11.25;6.58;;;;;;;4.86;76.66;99890.77;1630216;87;21019;-80
2022/02/16 05:24:55;;;;;;;8.80;6.63;;;;;;;4.82;76.81;99877.11;1614723;86;20971;-80
2022/02/16 05:27:29;;;;;;;7.92;6.45;;;;;;;4.82;76.81;99877.11;1657060;86;21946;-80
2022/02/16 05:29:55;;;;;;;9.50;7.55;;;;;;;4.84;76.69;99874.55;1657581;86;20928;-80
2022/02/16 05:32:21;;;;;;;10.03;6.72;;;;;;;4.83;76.66;99866.02;1657455;85;20932;-80
2022/02/16 05:34:51;;;;;;;8.05;6.28;;;;;;;4.83;76.71;99867.72;1648345;86;21365;-80
2022/02/16 05:37:18;;;;;;;11.33;6.58;;;;;;;4.82;76.72;99864.31;1657580;84;21396;-80
2022/02/16 05:39:44;;;;;;;8.20;6.53;;;;;;;4.84;76.69;99864.30;1655868;86;20927;-80
2022/02/16 05:42:10;;;;;;;8.80;6.53;;;;;;;4.84;76.70;99863.02;1644807;86;20896;-79
2022/02/16 05:44:36;;;;;;;8.67;6.53;;;;;;;4.84;76.69;99860.03;1656318;86;20896;-79
2022/02/16 05:47:02;;;;;;;7.93;6.10;;;;;;;4.84;76.68;99861.31;1656964;85;21010;-79
2022/02/16 05:49:28;;;;;;;6.78;5.72;;;;;;;4.84;76.66;99857.47;1646169;86;20968;-79
2022/02/16 05:51:54;;;;;;;9.63;6.00;;;;;;;4.85;76.69;99857.89;1657260;86;20947;-79
2022/02/16 05:54:20;;;;;;;7.70;6.83;;;;;;;4.86;76.69;99861.30;1653250;84;20937;-79
2022/02/16 05:56:46;;;;;;;7.77;6.03;;;;;;;4.87;76.67;99863.01;1656188;86;21507;-79
2022/02/16 05:59:12;;;;;;;8.98;6.75;;;;;;;4.88;76.67;99853.19;1662134;84;20900;-79
2022/02/16 06:01:39;;;;;;;11.83;6.50;;;;;;;4.88;76.69;99864.28;1685564;83;21639;-79
2022/02/16 06:04:05;;;;;;;8.08;6.17;;;;;;;4.90;76.66;99864.27;1683647;83;20950;-79
2022/02/16 06:06:33;;;;;;;8.10;6.42;;;;;;;4.91;76.68;99863.41;1679657;83;20946;-79
2022/02/16 06:08:59;;;;;;;9.77;6.10;;;;;;;4.90;76.64;99865.13;1684783;85;21463;-80
2022/02/16 06:11:26;;;;;;;7.35;6.05;;;;;;;4.92;76.64;99867.67;1682663;85;22081;-80
2022/02/16 06:13:53;;;;;;;10.05;5.72;;;;;;;4.92;76.65;99862.13;1674779;85;21878;-80
2022/02/16 06:16:19;;;;;;;7.55;5.50;;;;;;;4.94;76.67;99856.99;1685595;84;21355;-79
2022/02/16 06:18:45;;;;;;;11.08;6.80;;;;;;;4.95;76.67;99862.11;1684478;84;20985;-79
2022/02/16 06:21:12;;;;;;;8.28;5.45;;;;;;;4.97;76.67;99863.38;1683102;84;21403;-79
2022/02/16 06:23:38;;;;;;;7.90;5.37;;;;;;;4.98;76.66;99859.53;1678300;84;20978;-79
2022/02/16 06:26:04;;;;;;;7.55;5.47;;;;;;;4.98;76.66;99853.12;1688921;84;20895;-78
2022/02/16 06:28:30;;;;;;;8.27;6.30;;;;;;;4.98;76.65;99848.00;1687053;83;21426;-83
2022/02/16 06:30:56;;;;;;;10.30;6.40;;;;;;;4.99;76.64;99847.58;1616999;85;22539;-80
2022/02/16 06:33:22;;;;;;;8.58;6.28;;;;;;;4.99;76.63;99849.70;1616862;87;21413;-80
2022/02/16 06:35:48;;;;;;;10.10;6.15;;;;;;;4.99;76.64;99843.73;1682259;84;22446;-81
2022/02/16 06:38:14;;;;;;;10.32;7.00;;;;;;;5.00;76.66;99844.16;1653080;85;21572;-81
2022/02/16 06:40:40;;;;;;;9.00;6.53;;;;;;;5.02;76.67;99842.86;1645786;85;21539;-81
2022/02/16 06:43:07;;;;;;;9.70;6.35;;;;;;;5.00;76.66;99833.91;1647378;85;21485;-82
2022/02/16 06:45:33;;;;;;;11.03;6.62;;;;;;;5.02;76.66;99841.58;1649770;85;22142;-81
2022/02/16 06:47:59;;;;;;;12.23;7.40;;;;;;;5.02;76.64;99841.58;1644125;85;22360;-82
2022/02/16 06:50:25;;;;;;;10.10;7.10;;;;;;;5.02;76.66;99841.58;1646073;85;20987;-81
2022/02/16 06:52:51;;;;;;;13.15;6.92;;;;;;;5.00;76.67;99839.03;1615808;87;21143;-79
2022/02/16 06:55:17;;;;;;;9.30;6.75;;;;;;;5.02;76.66;99829.62;1614506;87;21496;-79
2022/02/16 06:57:43;;;;;;;12.80;6.55;;;;;;;5.02;76.66;99827.06;1616774;87;21119;-79
2022/02/16 07:00:10;;;;;;;12.23;6.77;;;;;;;5.04;76.66;99825.77;1616864;86;21543;-80
2022/02/16 07:02:45;;;;;;;10.38;6.30;;;;;;;5.03;76.65;99817.23;1609574;87;21526;-79
2022/02/16 07:05:11;;;;;;;11.60;5.92;;;;;;;5.03;76.67;99818.52;1615391;88;21527;-79
2022/02/16 07:07:37;;;;;;;7.78;5.90;;;;;;;5.04;76.66;99820.22;1614089;87;22371;-79
2022/02/16 07:10:05;;;;;;;8.73;6.05;;;;;;;5.06;76.66;99810.80;1609849;88;21072;-80
2022/02/16 07:12:32;;;;;;;11.60;5.67;;;;;;;5.06;76.65;99809.52;1619639;87;21914;-80
2022/02/16 07:14:58;;;;;;;7.60;5.20;;;;;;;5.08;76.63;99809.09;1604306;88;21384;-80
2022/02/16 07:17:25;;;;;;;7.60;5.20;;;;;;;5.09;76.65;99801.82;1613788;87;21473;-81
2022/02/16 07:19:52;;;;;;;7.45;5.33;;;;;;;5.10;76.64;99799.67;1601673;88;20984;-80
2022/02/16 07:22:18;;;;;;;10.20;5.10;;;;;;;5.12;76.64;99803.51;1615510;86;20948;-81
2022/02/16 07:24:44;;;;;;;9.03;5.17;;;;;;;5.14;76.63;99800.50;1613353;87;21147;-80
2022/02/16 07:27:10;;;;;;;6.67;5.70;;;;;;;5.14;76.64;99803.92;1616477;87;21515;-80
2022/02/16 07:29:37;;;;;;;12.20;6.00;;;;;;;5.15;76.61;99796.66;1615448;87;21134;-80
2022/02/16 07:32:04;;;;;;;7.27;5.00;;;;;;;5.18;76.62;99791.94;1616873;86;20948;-79
2022/02/16 07:34:31;;;;;;;7.25;4.83;;;;;;;5.18;76.60;99788.09;1617837;86;21072;-81
2022/02/16 07:37:00;;;;;;;10.25;5.62;;;;;;;5.20;76.64;99788.93;1615594;87;21520;-81
2022/02/16 07:39:27;;;;;;;6.87;5.12;;;;;;;5.21;76.58;99786.76;1615577;87;21199;-81
2022/02/16 07:41:54;;;;;;;6.47;5.12;;;;;;;5.23;76.60;99784.60;1615337;87;21132;-81
2022/02/16 07:44:21;;;;;;;6.42;4.62;;;;;;;5.25;76.60;99774.34;1616609;87;21412;-80
2022/02/16 07:46:47;;;;;;;6.40;5.05;;;;;;;5.27;76.61;99783.72;1616248;87;21127;-81
2022/02/16 07:49:16;;;;;;;6.35;4.78;;;;;;;5.28;76.56;99771.32;1602840;87;21669;-81
2022/02/16 07:51:43;;;;;;;6.05;4.50;;;;;;;5.29;76.56;99772.17;1644820;87;21092;-82
2022/02/16 07:54:09;;;;;;;7.83;4.83;;;;;;;5.30;76.58;99767.03;1624209;87;21538;-81
2022/02/16 07:56:35;;;;;;;5.25;4.10;;;;;;;5.32;76.58;99761.46;1646204;85;21326;-81
2022/02/16 07:59:03;;;;;;;5.53;4.40;;;;;;;5.33;76.58;99762.31;1629909;87;21059;-80
2022/02/16 08:01:29;;;;;;;8.03;5.07;;;;;;;5.35;76.55;99761.87;1624647;86;20925;-79
2022/02/16 08:04:15;;;;;;;6.73;4.80;;;;;;;5.39;76.55;99765.25;1628163;86;20917;-79
2022/02/16 08:06:24;;;;;;;8.28;5.60;;;;;;;5.42;76.58;99761.38;1608163;86;20885;-80
2022/02/16 08:08:50;;;;;;;11.33;4.93;;;;;;;5.44;76.57;99763.50;1631790;86;20921;-80
2022/02/16 08:11:16;;;;;;;6.62;4.20;;;;;;;5.47;76.53;99752.79;1629668;87;21082;-80
2022/02/16 08:13:53;;;;;;;4.97;4.47;;;;;;;5.51;76.56;99752.33;1622975;86;21139;-79
2022/02/16 08:16:27;;;;;;;9.33;3.98;;;;;;;5.54;76.52;99745.89;1646670;85;21142;-79
2022/02/16 08:18:50;;;;;;;4.58;3.95;;;;;;;5.56;76.49;99742.87;1534811;85;10000567;-79
2022/02/16 08:21:18;;;;;;;5.70;4.20;;;;;;;5.59;76.52;99738.58;1629041;86;21002;-79
2022/02/16 08:23:46;;;;;;;6.62;4.67;;;;;;;5.64;76.51;99743.23;1651079;86;21102;-79
2022/02/16 08:26:12;;;;;;;9.83;4.35;;;;;;;5.67;76.50;99726.11;1676545;83;21140;-79
2022/02/16 08:28:38;;;;;;;6.83;3.93;;;;;;;5.74;76.57;99728.99;1684564;83;20890;-80
2022/02/16 08:31:04;;;;;;;6.97;4.00;;;;;;;5.79;76.52;99722.95;1656959;86;21083;-80
2022/02/16 08:33:30;;;;;;;4.97;3.63;;;;;;;5.84;76.52;99708.79;1687690;83;21132;-80
2022/02/16 08:35:58;;;;;;;7.00;4.67;;;;;;;5.90;76.54;99708.32;1687193;83;21077;-79
2022/02/16 08:38:24;;;;;;;5.50;3.80;;;;;;;5.93;76.42;99693.33;1666102;85;21135;-79
2022/02/16 08:40:50;;;;;;;5.17;3.90;;;;;;;5.95;76.44;99689.88;1685972;83;21074;-79
2022/02/16 08:43:17;;;;;;;9.93;4.55;;;;;;;5.99;76.47;99679.14;1687682;83;21091;-82
2022/02/16 08:45:43;;;;;;;5.70;4.03;;;;;;;6.08;76.53;99670.48;1686169;83;21114;-81
2022/02/16 08:48:09;;;;;;;9.05;4.78;;;;;;;6.16;76.49;99667.38;1688420;83;21071;-79
2022/02/16 08:50:36;;;;;;;6.35;4.28;;;;;;;6.23;76.48;99668.56;1659511;84;21006;-81
2022/02/16 08:53:02;;;;;;;5.55;4.33;;;;;;;6.30;76.47;99656.45;1687193;83;21101;-80
2022/02/16 08:55:30;;;;;;;5.95;4.45;;;;;;;6.34;76.44;99649.13;1675593;84;21139;-80
2022/02/16 08:57:56;;;;;;;6.70;3.55;;;;;;;6.40;76.44;99652.89;1682483;83;21077;-81
2022/02/16 09:00:22;;;;;;;6.53;3.85;;;;;;;6.45;76.41;99635.70;1687066;83;21127;-82
2022/02/16 09:02:52;;;;;;;5.80;3.62;;;;;;;6.48;76.40;99630.52;1686247;83;21045;-81
2022/02/16 09:05:18;;;;;;;10.30;4.30;;;;;;;6.52;76.37;99626.18;1666595;84;21509;-81
2022/02/16 09:07:45;;;;;;;5.40;3.62;;;;;;;6.53;76.35;99614.60;1664769;84;21104;-81
2022/02/16 09:10:12;;;;;;;8.78;4.00;;;;;;;6.54;76.33;99617.58;1679351;84;28168;-81
2022/02/16 09:12:39;;;;;;;6.37;3.92;;;;;;;6.55;76.34;99602.59;1656277;86;21127;-82
2022/02/16 09:15:06;;;;;;;5.17;3.77;;;;;;;6.58;76.33;99595.27;1677916;83;21120;-83
2022/02/16 09:17:33;;;;;;;7.10;3.55;;;;;;;6.61;76.30;99587.52;1688261;83;21116;-82
2022/02/16 09:19:59;;;;;;;6.40;3.87;;;;;;;6.63;76.29;99584.05;1688134;83;21061;-83
2022/02/16 09:22:27;;;;;;;6.42;4.00;;;;;;;6.68;76.18;99582.69;1678811;83;21092;-82
2022/02/16 09:24:54;;;;;;;8.10;3.90;;;;;;;6.75;76.34;99573.16;1659313;83;21076;-82
2022/02/16 09:27:20;;;;;;;5.22;3.20;;;;;;;6.83;76.27;99573.41;1651022;85;21124;-82
2022/02/16 09:29:49;;;;;;;4.90;3.35;;;;;;;6.88;76.23;99570.75;1648678;85;21124;-80
2022/02/16 09:32:16;;;;;;;5.80;3.47;;;;;;;6.93;76.26;99565.95;1647555;85;21215;-80
2022/02/16 09:34:44;;;;;;;6.28;4.03;;;;;;;6.96;76.14;99556.89;1614023;86;20983;-80
2022/02/16 09:37:12;;;;;;;6.25;3.17;;;;;;;7.00;76.15;99541.42;1602500;88;21039;-81
2022/02/16 09:39:38;;;;;;;5.60;3.62;;;;;;;7.05;76.15;99551.17;1650143;86;21025;-81
2022/02/16 09:42:05;;;;;;;5.45;3.60;;;;;;;7.08;76.15;99547.27;1646746;85;21659;-82
2022/02/16 09:44:45;;;;;;;5.35;3.77;;;;;;;7.16;76.21;99550.54;1650121;85;21057;-81
2022/02/16 09:47:12;;;;;;;5.40;3.20;;;;;;;7.22;76.17;99545.28;1650612;85;20989;-81
2022/02/16 09:49:40;;;;;;;5.33;3.40;;;;;;;7.27;76.03;99539.61;1614098;86;21106;-82
2022/02/16 09:52:09;;;;;;;5.22;3.75;;;;;;;7.29;76.04;99542.97;1646011;86;21279;-83
2022/02/16 09:54:37;;;;;;;7.67;4.03;;;;;;;7.33;76.04;99540.74;1630389;86;21110;-82
2022/02/16 09:57:04;;;;;;;6.10;3.55;;;;;;;7.39;75.99;99539.33;1602981;89;20937;-82
2022/02/16 09:59:31;;;;;;;7.28;3.80;;;;;;;7.42;76.00;99532.00;1650261;86;20922;-83
2022/02/16 10:02:01;;;;;;;5.97;3.90;;;;;;;7.46;75.99;99528.05;1631327;86;20923;-83
2022/02/16 10:04:30;;;;;;;7.55;4.30;;;;;;;7.50;76.00;99516.81;1599690;87;20922;-82
2022/02/16 10:06:56;;;;;;;8.78;3.75;;;;;;;7.55;75.98;99505.14;1647363;85;20925;-81
2022/02/16 10:09:35;;;;;;;5.47;3.70;;;;;;;7.58;75.79;99497.36;1649043;85;20975;-82
2022/02/16 10:12:06;;;;;;;6.20;3.25;;;;;;;7.59;75.88;99492.19;1634135;86;20957;-82
2022/02/16 10:14:36;;;;;;;5.90;3.45;;;;;;;7.61;75.91;99489.14;1641835;86;21000;-83
2022/02/16 10:17:23;;;;;;;5.67;3.20;;;;;;;7.64;75.80;99485.21;1651612;85;21524;-83
2022/02/16 10:19:59;;;;;;;5.37;3.05;;;;;;;7.66;75.61;99469.73;1643888;85;20941;-83
2022/02/16 10:22:31;;;;;;;5.60;3.40;;;;;;;7.71;75.79;99474.34;1648814;85;20965;-82
2022/02/16 10:25:15;;;;;;;6.15;3.60;;;;;;;7.71;75.79;99474.34;1666805;83;21309;-82
2022/02/16 10:28:04;;;;;;;4.28;3.40;;;;;;;7.78;75.82;99471.19;1696292;83;20921;-82
2022/02/16 10:31:09;;;;;;;5.47;3.17;;;;;;;7.80;75.56;99466.38;1695760;83;20938;-82
2022/02/16 10:33:47;;;;;;;9.68;3.98;;;;;;;7.79;75.63;99451.86;1685109;83;20870;-81
2022/02/16 10:36:27;;;;;;;3.67;3.05;;;;;;;7.82;75.61;99454.33;1635723;86;20934;-81
2022/02/16 10:39:00;;;;;;;6.53;3.30;;;;;;;7.82;75.42;99443.19;1680624;85;20958;-82
2022/02/16 10:41:49;;;;;;;5.87;2.98;;;;;;;7.81;75.56;99437.64;1682395;83;20957;-82
2022/02/16 10:44:22;;;;;;;4.95;3.37;;;;;;;7.82;75.50;99435.03;1688021;83;20888;-81
2022/02/16 10:47:11;;;;;;;4.60;3.08;;;;;;;7.84;75.58;99424.25;1681311;83;21105;-81
2022/02/16 10:49:40;;;;;;;4.17;2.85;;;;;;;7.90;75.52;99412.97;1661136;86;22201;-82
2022/02/16 10:52:14;;;;;;;4.42;3.33;;;;;;;7.94;75.48;99404.30;1662972;85;21065;-82
2022/02/16 10:54:59;;;;;;;6.70;3.22;;;;;;;8.00;75.45;99396.86;1662946;85;20950;-82
2022/02/16 10:57:27;;;;;;;5.80;2.87;;;;;;;8.02;75.36;99399.80;1660353;84;20927;-83
2022/02/16 10:59:53;;;;;;;4.95;3.25;;;;;;;8.08;75.42;99399.65;1661670;84;20926;-82
2022/02/16 11:02:25;;;;;;;7.30;3.37;;;;;;;8.11;75.33;99387.14;1663055;84;21458;-82
2022/02/16 11:04:52;;;;;;;3.75;3.15;;;;;;;8.12;75.28;99379.38;1658989;84;20983;-80
2022/02/16 11:07:20;;;;;;;5.40;3.22;;;;;;;8.16;75.24;99371.97;1659857;86;21009;-80
2022/02/16 11:09:50;;;;;;;4.83;3.20;;;;;;;8.15;75.05;99370.28;1663962;84;20957;-81
2022/02/16 11:12:17;;;;;;;9.75;3.40;;;;;;;8.15;75.17;99359.98;1662144;84;20972;-81
2022/02/16 11:14:44;;;;;;;6.62;3.45;;;;;;;8.16;75.13;99353.11;1672140;83;20953;-82
2022/02/16 11:17:11;;;;;;;7.42;3.27;;;;;;;8.21;75.18;99339.67;1686086;83;21015;-81
2022/02/16 11:19:38;;;;;;;4.37;3.45;;;;;;;8.29;75.16;99344.17;1680488;84;21541;-80
2022/02/16 11:22:14;;;;;;;4.30;2.92;;;;;;;8.34;74.89;99329.44;1674976;85;25230;-80
2022/02/16 11:24:53;;;;;;;5.47;3.08;;;;;;;8.37;74.98;99329.36;1676971;84;21090;-83
2022/02/16 11:27:38;;;;;;;6.30;3.27;;;;;;;8.41;74.99;99321.95;1643964;86;20949;-82
2022/02/16 11:30:06;;;;;;;6.80;3.37;;;;;;;8.43;74.99;99314.17;1639823;87;20967;-83
2022/02/16 11:32:39;;;;;;;3.70;2.77;;;;;;;8.49;74.98;99301.13;1639598;86;21000;-81
2022/02/16 11:35:17;;;;;;;5.53;3.30;;;;;;;8.49;74.81;99299.84;1629080;85;20970;-81
2022/02/16 11:37:47;;;;;;;3.70;2.52;;;;;;;8.46;74.80;99289.17;1650381;86;20932;-81